TimeEST,TemperatureF,Dew PointF,Humidity,Sea Level PressureIn,VisibilityMPH,Wind Direction,Wind SpeedMPH,Gust SpeedMPH,PrecipitationIn,Events,Conditions,WindDirDegrees,DateUTC
12:15 AM,48.2,48.2,100,30.20,10.0,WSW,8.1,-,N/A,,Overcast,250,2013-01-29 05:15:00
12:35 AM,48.2,48.2,100,30.20,10.0,WSW,8.1,-,N/A,,Overcast,240,2013-01-29 05:35:00
12:55 AM,48.2,48.2,100,30.20,10.0,WSW,9.2,-,N/A,,Overcast,240,2013-01-29 05:55:00
1:15 AM,46.4,46.4,100,30.20,10.0,WSW,9.2,-,N/A,,Mostly Cloudy,240,2013-01-29 06:15:00
1:35 AM,46.4,46.4,100,30.20,9.0,WSW,11.5,-,N/A,,Mostly Cloudy,250,2013-01-29 06:35:00
1:55 AM,48.2,48.2,100,30.20,10.0,Variable,4.6,-,N/A,,Overcast,0,2013-01-29 06:55:00
2:15 AM,48.2,48.2,100,30.20,10.0,WSW,10.4,-,N/A,,Mostly Cloudy,240,2013-01-29 07:15:00
2:35 AM,48.2,48.2,100,30.20,10.0,WSW,4.6,-,N/A,,Mostly Cloudy,240,2013-01-29 07:35:00
2:55 AM,48.2,48.2,100,30.19,10.0,Variable,4.6,-,N/A,,Overcast,0,2013-01-29 07:55:00
3:15 AM,48.2,48.2,100,30.19,10.0,Calm,Calm,-,N/A,,Overcast,0,2013-01-29 08:15:00
3:35 AM,48.2,48.2,100,30.19,10.0,WSW,4.6,-,N/A,,Overcast,240,2013-01-29 08:35:00
3:55 AM,48.2,48.2,100,30.18,8.0,SW,5.8,-,N/A,,Mostly Cloudy,230,2013-01-29 08:55:00
4:15 AM,48.2,48.2,100,30.18,6.0,Variable,4.6,-,N/A,,Scattered Clouds,0,2013-01-29 09:15:00
4:35 AM,48.2,48.2,100,30.18,10.0,Variable,6.9,-,N/A,,Mostly Cloudy,0,2013-01-29 09:35:00
4:55 AM,48.2,48.2,100,30.18,10.0,Variable,6.9,-,N/A,,Overcast,0,2013-01-29 09:55:00
5:15 AM,48.2,48.2,100,30.18,10.0,Variable,4.6,-,N/A,,Overcast,0,2013-01-29 10:15:00
5:35 AM,48.2,48.2,100,30.17,10.0,Variable,5.8,-,N/A,,Overcast,0,2013-01-29 10:35:00
5:55 AM,48.2,48.2,100,30.17,10.0,Variable,4.6,-,N/A,,Overcast,0,2013-01-29 10:55:00
6:15 AM,48.2,48.2,100,30.17,10.0,SW,8.1,-,N/A,,Overcast,230,2013-01-29 11:15:00
6:55 AM,48.2,48.2,100,30.17,10.0,WSW,5.8,-,N/A,,Partly Cloudy,250,2013-01-29 11:55:00
7:15 AM,48.2,48.2,100,30.17,10.0,Variable,5.8,-,N/A,,Partly Cloudy,0,2013-01-29 12:15:00
7:35 AM,48.2,48.2,100,30.18,10.0,SW,8.1,-,N/A,,Partly Cloudy,220,2013-01-29 12:35:00
7:55 AM,48.2,48.2,100,30.17,10.0,SW,6.9,-,N/A,,Unknown,220,2013-01-29 12:55:00
8:15 AM,48.2,48.2,100,30.18,10.0,South,5.8,-,N/A,,Unknown,190,2013-01-29 13:15:00
8:35 AM,50.0,50.0,100,30.18,10.0,Variable,6.9,-,N/A,,Unknown,0,2013-01-29 13:35:00
8:55 AM,50.0,50.0,100,30.18,10.0,Variable,4.6,-,N/A,,Unknown,0,2013-01-29 13:55:00
9:15 AM,51.8,51.8,100,30.19,10.0,Variable,6.9,-,N/A,,Clear,0,2013-01-29 14:15:00
9:35 AM,53.6,51.8,94,30.18,10.0,SW,9.2,-,N/A,,Clear,230,2013-01-29 14:35:00
9:55 AM,53.6,51.8,94,30.18,10.0,SW,10.4,-,N/A,,Clear,220,2013-01-29 14:55:00
10:15 AM,55.4,53.6,94,30.18,10.0,SW,9.2,-,N/A,,Clear,230,2013-01-29 15:15:00
10:35 AM,55.4,53.6,94,30.18,10.0,Variable,6.9,-,N/A,,Scattered Clouds,0,2013-01-29 15:35:00
10:55 AM,55.4,53.6,94,30.17,10.0,Variable,6.9,-,N/A,,Scattered Clouds,0,2013-01-29 15:55:00
11:15 AM,57.2,53.6,88,30.17,10.0,WSW,11.5,-,N/A,,Mostly Cloudy,240,2013-01-29 16:15:00
11:35 AM,59.0,53.6,82,30.16,10.0,WSW,12.7,-,N/A,,Scattered Clouds,240,2013-01-29 16:35:00
11:55 AM,60.8,53.6,77,30.16,10.0,WSW,9.2,-,N/A,,Scattered Clouds,240,2013-01-29 16:55:00
12:15 PM,59.0,53.6,82,30.15,10.0,SW,9.2,-,N/A,,Scattered Clouds,230,2013-01-29 17:15:00
12:35 PM,57.2,53.6,88,30.13,10.0,SW,10.4,-,N/A,,Partly Cloudy,230,2013-01-29 17:35:00
12:55 PM,60.8,53.6,77,30.12,10.0,SW,10.4,-,N/A,,Partly Cloudy,230,2013-01-29 17:55:00
1:15 PM,62.6,53.6,72,30.11,10.0,Variable,5.8,-,N/A,,Partly Cloudy,0,2013-01-29 18:15:00
1:35 PM,62.6,53.6,72,30.10,10.0,SW,12.7,-,N/A,,Clear,230,2013-01-29 18:35:00
1:55 PM,62.6,53.6,72,30.10,10.0,WSW,6.9,-,N/A,,Clear,250,2013-01-29 18:55:00
2:15 PM,64.4,51.8,64,30.09,10.0,WSW,10.4,-,N/A,,Clear,240,2013-01-29 19:15:00
2:35 PM,62.6,51.8,68,30.08,10.0,WSW,6.9,-,N/A,,Clear,250,2013-01-29 19:35:00
2:55 PM,64.4,51.8,64,30.08,10.0,Variable,4.6,-,N/A,,Clear,0,2013-01-29 19:55:00
3:15 PM,64.4,50.0,59,30.07,10.0,West,10.4,-,N/A,,Clear,260,2013-01-29 20:15:00
3:35 PM,64.4,50.0,59,30.07,10.0,Variable,4.6,-,N/A,,Clear,0,2013-01-29 20:35:00
3:55 PM,64.4,48.2,56,30.07,10.0,WSW,9.2,-,N/A,,Clear,240,2013-01-29 20:55:00
4:15 PM,64.4,48.2,56,30.06,10.0,Variable,5.8,-,N/A,,Clear,0,2013-01-29 21:15:00
4:35 PM,62.6,48.2,59,30.06,10.0,Variable,3.5,-,N/A,,Clear,0,2013-01-29 21:35:00
4:55 PM,62.6,48.2,59,30.05,10.0,Variable,5.8,-,N/A,,Clear,0,2013-01-29 21:55:00
5:15 PM,62.6,48.2,59,30.04,10.0,Variable,4.6,-,N/A,,Clear,0,2013-01-29 22:15:00
5:35 PM,60.8,48.2,63,30.03,10.0,SSE,4.6,-,N/A,,Clear,160,2013-01-29 22:35:00
5:55 PM,60.8,48.2,63,30.02,10.0,SSE,4.6,-,N/A,,Clear,160,2013-01-29 22:55:00
6:15 PM,60.8,46.4,59,30.01,10.0,South,6.9,-,N/A,,Clear,180,2013-01-29 23:15:00
6:35 PM,60.8,46.4,59,30.01,10.0,SSE,4.6,-,N/A,,Clear,160,2013-01-29 23:35:00
6:55 PM,59.0,46.4,63,30.02,10.0,SE,3.5,-,N/A,,Clear,140,2013-01-29 23:55:00
7:15 PM,55.4,46.4,72,30.01,10.0,Variable,6.9,-,N/A,,Clear,0,2013-01-30 00:15:00
7:35 PM,57.2,46.4,67,30.00,10.0,SE,6.9,-,N/A,,Clear,130,2013-01-30 00:35:00
7:55 PM,57.2,46.4,67,30.00,10.0,SSE,8.1,-,N/A,,Clear,150,2013-01-30 00:55:00
8:15 PM,57.2,46.4,67,30.00,10.0,Variable,6.9,-,N/A,,Clear,0,2013-01-30 01:15:00
8:35 PM,60.8,48.2,63,30.01,10.0,South,11.5,-,N/A,,Clear,170,2013-01-30 01:35:00
8:55 PM,59.0,48.2,67,30.01,10.0,South,11.5,-,N/A,,Clear,170,2013-01-30 01:55:00
9:15 PM,59.0,50.0,72,30.01,10.0,South,10.4,-,N/A,,Clear,190,2013-01-30 02:15:00
9:35 PM,59.0,51.8,77,29.99,10.0,SSE,9.2,-,N/A,,Clear,160,2013-01-30 02:35:00
9:55 PM,57.2,51.8,82,29.99,10.0,South,8.1,-,N/A,,Clear,170,2013-01-30 02:55:00
10:15 PM,57.2,51.8,82,29.99,10.0,South,10.4,-,N/A,,Clear,170,2013-01-30 03:15:00
10:35 PM,57.2,53.6,88,29.97,10.0,South,12.7,-,N/A,,Clear,170,2013-01-30 03:35:00
10:55 PM,59.0,53.6,82,29.96,10.0,South,12.7,-,N/A,,Clear,180,2013-01-30 03:55:00
11:55 PM,59.0,53.6,82,29.93,10.0,South,10.4,-,N/A,,Clear,170,2013-01-30 04:55:00